Time;durP1;ratioP1;P1;durP2;ratioP2;P2;SDS_P1;SDS_P2;PMS_P1;PMS_P2;Temp;Humidity;BMP_temperature;BMP_pressure;BME280_temperature;BME280_humidity;BME280_pressure;Samples;Min_cycle;Max_cycle;Signal;HPM_P1;HPM_P2
2023/06/02 00:00:49;;;;;;;0.50;0.30;;;;;;;18.51;100.00;95246.03;5111379;28;20447;-59
2023/06/02 00:03:19;;;;;;;0.50;0.40;;;;;;;18.51;100.00;95243.34;5115418;28;20489;-60
2023/06/02 00:05:49;;;;;;;0.50;0.30;;;;;;;18.38;100.00;95247.78;5115659;28;20440;-59
2023/06/02 00:08:18;;;;;;;0.40;0.30;;;;;;;18.23;100.00;95247.47;5115990;28;20439;-60
2023/06/02 00:10:47;;;;;;;0.50;0.50;;;;;;;18.36;100.00;95250.00;5115373;28;20475;-60
2023/06/02 00:13:15;;;;;;;0.50;0.50;;;;;;;18.50;100.00;95244.44;5116081;28;20443;-60
2023/06/02 00:15:44;;;;;;;0.40;0.30;;;;;;;18.46;100.00;95242.69;5115175;28;20428;-59
2023/06/02 00:18:14;;;;;;;0.40;0.30;;;;;;;18.52;100.00;95236.84;5115566;28;20464;-60
2023/06/02 00:20:44;;;;;;;0.47;0.47;;;;;;;18.49;100.00;95224.09;5115116;28;20492;-59
2023/06/02 00:23:12;;;;;;;0.83;0.40;;;;;;;18.63;100.00;95223.88;5116007;28;20443;-59
2023/06/02 00:25:41;;;;;;;7.20;0.80;;;;;;;18.68;100.00;95231.75;5115513;28;20469;-59
2023/06/02 00:28:09;;;;;;;0.70;0.70;;;;;;;18.57;100.00;95234.00;5115692;28;20880;-60
2023/06/02 00:30:38;;;;;;;0.50;0.30;;;;;;;18.49;100.00;95224.09;5115204;28;20987;-60
2023/06/02 00:33:06;;;;;;;1.10;1.03;;;;;;;18.40;100.00;95224.09;5115405;28;20439;-60
2023/06/02 00:35:36;;;;;;;1.00;0.30;;;;;;;17.99;100.00;95156.00;5088216;28;20519;-59
2023/06/02 00:38:05;;;;;;;0.80;0.60;;;;;;;18.21;100.00;95204.88;5115272;28;20492;-59
2023/06/02 00:40:33;;;;;;;0.63;0.63;;;;;;;18.23;100.00;95212.59;5115223;28;20919;-59
2023/06/02 00:43:02;;;;;;;0.70;0.30;;;;;;;18.38;100.00;95215.56;5115454;28;20856;-59
2023/06/02 00:45:30;;;;;;;0.70;0.53;;;;;;;18.17;100.00;95219.25;5115544;28;20431;-59
2023/06/02 00:48:01;;;;;;;0.40;0.30;;;;;;;18.26;100.00;95212.78;5115272;28;20439;-59
2023/06/02 00:50:30;;;;;;;0.40;0.30;;;;;;;18.45;100.00;95206.22;5115449;28;20518;-59
2023/06/02 00:53:00;;;;;;;0.40;0.20;;;;;;;18.33;100.00;95207.69;5114686;28;20439;-59
2023/06/02 00:55:31;;;;;;;0.40;0.20;;;;;;;18.42;100.00;95209.56;5115017;28;20949;-59
2023/06/02 00:58:03;;;;;;;0.40;0.27;;;;;;;18.47;100.00;95210.19;5114518;27;20431;-59
2023/06/02 01:00:38;;;;;;;0.40;0.30;;;;;;;18.43;100.00;95209.25;5114706;28;20443;-59
2023/06/02 01:03:07;;;;;;;0.70;0.50;;;;;;;18.20;100.00;95216.72;5101419;28;21008;-60
2023/06/02 01:05:37;;;;;;;9.53;0.77;;;;;;;17.98;100.00;95206.19;5114314;28;20942;-59
2023/06/02 01:08:08;;;;;;;0.40;0.30;;;;;;;18.14;100.00;95214.53;5114901;28;20497;-60
2023/06/02 01:10:38;;;;;;;0.60;0.30;;;;;;;18.17;100.00;95208.50;5114263;28;20494;-59
2023/06/02 01:13:06;;;;;;;0.53;0.40;;;;;;;18.15;100.00;95208.03;5114340;28;20508;-59
2023/06/02 01:15:35;;;;;;;0.40;0.23;;;;;;;18.22;100.00;95214.50;5113832;28;20840;-59
2023/06/02 01:18:09;;;;;;;0.60;0.40;;;;;;;18.20;100.00;95219.41;5115097;28;20435;-60
2023/06/02 01:20:44;;;;;;;0.63;0.63;;;;;;;18.23;100.00;95212.59;5114548;28;20443;-59
2023/06/02 01:23:17;;;;;;;0.40;0.20;;;;;;;18.19;100.00;95212.44;5114991;27;20439;-59
2023/06/02 01:25:47;;;;;;;0.40;0.20;;;;;;;18.14;100.00;95204.56;5114108;28;20776;-59
2023/06/02 01:28:15;;;;;;;0.60;0.30;;;;;;;17.80;100.00;95183.19;5114258;28;20472;-59
2023/06/02 01:30:44;;;;;;;0.40;0.20;;;;;;;17.93;100.00;95197.53;5087690;28;20536;-59
2023/06/02 01:33:21;;;;;;;0.50;0.47;;;;;;;17.96;100.00;95202.25;5113736;28;20431;-59
2023/06/02 01:35:54;;;;;;;0.70;0.70;;;;;;;17.80;100.00;95204.63;5114363;28;20469;-59
2023/06/02 01:38:26;;;;;;;0.57;0.40;;;;;;;17.77;100.00;95202.59;5113594;28;20442;-60
2023/06/02 01:41:00;;;;;;;0.97;0.57;;;;;;;17.73;100.00;95202.41;5114399;28;20440;-60
2023/06/02 01:43:29;;;;;;;0.60;0.50;;;;;;;17.51;100.00;95185.69;5113964;28;20443;-60
2023/06/02 01:45:58;;;;;;;0.43;0.37;;;;;;;17.76;100.00;95212.50;5114019;28;20444;-60
2023/06/02 01:48:28;;;;;;;0.40;0.27;;;;;;;17.74;100.00;95208.56;5113516;28;20523;-60
2023/06/02 01:53:42;;;;;;;0.50;0.30;;;;;;;17.61;100.00;95204.94;5113632;28;20840;-60
2023/06/02 01:56:12;;;;;;;0.70;0.60;;;;;;;17.58;100.00;95208.25;5113862;28;20448;-60
2023/06/02 01:58:41;;;;;;;0.40;0.30;;;;;;;17.56;100.00;95205.09;5113814;28;20477;-60
2023/06/02 02:01:09;;;;;;;0.50;0.40;;;;;;;17.59;100.00;95204.47;5113385;28;20436;-60
2023/06/02 02:03:55;;;;;;;0.40;0.30;;;;;;;17.19;100.00;95200.34;5113907;28;20443;-60
2023/06/02 02:06:29;;;;;;;0.40;0.30;;;;;;;17.18;100.00;95206.00;5113611;28;20493;-60
2023/06/02 02:08:58;;;;;;;1.50;0.50;;;;;;;17.19;100.00;95204.88;5113606;28;20799;-59
2023/06/02 02:11:28;;;;;;;0.70;0.50;;;;;;;17.31;100.00;95213.88;5113619;28;20471;-60
2023/06/02 02:13:57;;;;;;;0.40;0.30;;;;;;;16.88;100.00;95207.66;5113871;28;20505;-60
2023/06/02 02:16:25;;;;;;;0.40;0.30;;;;;;;16.96;100.00;95207.69;5113523;28;20458;-60
2023/06/02 02:18:56;;;;;;;0.40;0.40;;;;;;;16.91;100.00;95207.03;5113136;28;20471;-60
2023/06/02 02:21:25;;;;;;;0.40;0.20;;;;;;;16.82;100.00;95200.88;5113110;28;20958;-59
2023/06/02 02:23:54;;;;;;;0.87;0.40;;;;;;;16.86;100.00;95201.84;5112914;28;20862;-59
2023/06/02 02:26:23;;;;;;;0.40;0.30;;;;;;;16.81;100.00;95204.66;5113477;28;20440;-59
2023/06/02 02:28:53;;;;;;;0.43;0.43;;;;;;;16.94;100.00;95206.44;5113012;28;20511;-59
2023/06/02 02:31:22;;;;;;;0.50;0.37;;;;;;;16.89;100.00;95195.88;5113312;28;20933;-59
2023/06/02 02:33:51;;;;;;;0.60;0.60;;;;;;;16.93;100.00;95202.94;5113061;28;20443;-59
2023/06/02 02:36:19;;;;;;;0.50;0.33;;;;;;;16.78;100.00;95194.56;5112874;28;20432;-59
2023/06/02 02:38:48;;;;;;;0.60;0.50;;;;;;;16.67;100.00;95182.56;5112408;28;20436;-59
2023/06/02 02:41:16;;;;;;;10.83;0.90;;;;;;;16.72;100.00;95199.25;5112724;28;20440;-59
2023/06/02 02:43:44;;;;;;;0.60;0.40;;;;;;;16.59;100.00;95196.72;5112467;28;20937;-59
2023/06/02 02:46:14;;;;;;;0.40;0.30;;;;;;;16.59;100.00;95194.84;5112791;28;20811;-59
2023/06/02 02:48:42;;;;;;;0.40;0.23;;;;;;;16.61;100.00;95189.16;5113343;28;20436;-59
2023/06/02 02:51:11;;;;;;;0.73;0.37;;;;;;;16.43;100.00;95193.63;5112560;28;20475;-59
2023/06/02 02:53:40;;;;;;;0.40;0.30;;;;;;;16.15;100.00;95193.03;5113249;28;20436;-59
2023/06/02 02:56:08;;;;;;;0.83;0.83;;;;;;;15.92;100.00;95190.69;5112696;28;20849;-59
2023/06/02 02:58:37;;;;;;;0.40;0.33;;;;;;;16.16;100.00;95183.91;5113093;28;20500;-59
2023/06/02 03:01:05;;;;;;;0.43;0.30;;;;;;;16.07;100.00;95185.75;5112198;28;20440;-58
2023/06/02 03:03:35;;;;;;;0.40;0.20;;;;;;;16.10;100.00;95187.00;5113138;28;20440;-58
2023/06/02 03:06:05;;;;;;;1.60;0.77;;;;;;;15.93;100.00;95186.91;5112605;28;20427;-57
2023/06/02 03:08:34;;;;;;;0.40;0.30;;;;;;;16.43;100.00;95185.59;5113051;28;20439;-57
2023/06/02 03:11:02;;;;;;;1.03;0.50;;;;;;;16.73;100.00;95190.16;5112248;28;20472;-57
2023/06/02 03:13:30;;;;;;;0.90;0.40;;;;;;;16.84;100.00;95196.81;5112511;28;20819;-57
2023/06/02 03:15:59;;;;;;;0.40;0.30;;;;;;;16.40;100.00;95195.03;5112132;28;20435;-57
2023/06/02 03:18:27;;;;;;;0.50;0.30;;;;;;;16.20;100.00;95200.91;5112224;28;20447;-57
2023/06/02 03:20:58;;;;;;;0.50;0.30;;;;;;;15.94;100.00;95197.28;5111943;28;20436;-57
2023/06/02 03:23:28;;;;;;;0.50;0.33;;;;;;;16.00;100.00;95190.72;5112121;28;20451;-56
2023/06/02 03:25:56;;;;;;;0.40;0.30;;;;;;;16.27;100.00;95193.22;5099129;28;20497;-57
2023/06/02 03:28:25;;;;;;;0.50;0.33;;;;;;;16.10;100.00;95189.69;5111833;28;20540;-57
2023/06/02 03:30:53;;;;;;;0.40;0.20;;;;;;;16.26;100.00;95189.00;5112058;28;20487;-56
2023/06/02 03:33:21;;;;;;;0.90;0.63;;;;;;;16.34;100.00;95203.50;5111875;28;20547;-56
2023/06/02 03:35:50;;;;;;;0.50;0.40;;;;;;;16.52;100.00;95191.78;5111769;28;20475;-57
2023/06/02 03:38:20;;;;;;;0.40;0.30;;;;;;;16.55;100.00;95185.03;5111754;28;20447;-57
2023/06/02 03:40:49;;;;;;;0.50;0.30;;;;;;;16.55;100.00;95185.03;5112412;28;20489;-57
2023/06/02 03:43:17;;;;;;;0.40;0.30;;;;;;;16.44;100.00;95179.94;5111243;28;20463;-57
2023/06/02 03:45:46;;;;;;;0.50;0.33;;;;;;;16.20;100.00;95184.06;5111876;28;20435;-56
2023/06/02 03:48:14;;;;;;;0.40;0.30;;;;;;;16.27;100.00;95187.09;5111686;28;20435;-57
2023/06/02 03:50:43;;;;;;;0.40;0.30;;;;;;;16.51;100.00;95187.53;5111995;28;20447;-56
2023/06/02 03:53:11;;;;;;;0.40;0.20;;;;;;;16.59;100.00;95186.00;5111700;28;20467;-56
2023/06/02 03:55:41;;;;;;;0.70;0.70;;;;;;;16.23;100.00;95093.34;5111744;28;20443;-57
2023/06/02 03:58:12;;;;;;;0.50;0.40;;;;;;;16.75;100.00;95169.22;5111313;28;21076;-56
2023/06/02 04:00:41;;;;;;;4.73;0.40;;;;;;;16.88;100.00;95172.84;5111802;28;20923;-57
2023/06/02 04:03:11;;;;;;;0.53;0.37;;;;;;;17.00;100.00;95165.03;5086076;28;20440;-57
2023/06/02 04:05:40;;;;;;;0.43;0.27;;;;;;;17.02;100.00;95177.00;5111389;28;20442;-57
2023/06/02 04:08:08;;;;;;;0.40;0.30;;;;;;;16.93;100.00;95173.50;5111660;28;20447;-56
2023/06/02 04:10:36;;;;;;;0.50;0.47;;;;;;;16.73;100.00;95179.44;5111587;28;20488;-56
2023/06/02 04:13:06;;;;;;;0.50;0.30;;;;;;;16.68;100.00;95181.47;5111864;28;20544;-57
2023/06/02 04:15:35;;;;;;;0.50;0.40;;;;;;;16.99;100.00;95174.94;5109334;28;20485;-57
2023/06/02 04:18:04;;;;;;;0.40;0.33;;;;;;;17.17;100.00;95175.75;5101102;28;20440;-57
2023/06/02 04:20:33;;;;;;;0.40;0.40;;;;;;;17.28;100.00;95182.38;5098907;28;20986;-56
2023/06/02 04:23:01;;;;;;;0.50;0.30;;;;;;;17.18;100.00;95174.63;5111826;28;20501;-57
2023/06/02 04:25:29;;;;;;;1.87;0.50;;;;;;;16.57;100.00;95175.59;5111847;28;20431;-57
2023/06/02 04:27:58;;;;;;;1.20;1.10;;;;;;;16.31;100.00;95180.84;5111244;28;20436;-56
2023/06/02 04:30:28;;;;;;;0.63;0.60;;;;;;;16.24;100.00;95188.50;5111173;28;20469;-58
2023/06/02 04:32:56;;;;;;;0.63;0.50;;;;;;;15.64;100.00;95190.81;5110771;28;20493;-56
2023/06/02 04:35:25;;;;;;;0.50;0.30;;;;;;;15.83;100.00;95186.09;5111635;28;20436;-57
2023/06/02 04:37:53;;;;;;;0.80;0.50;;;;;;;16.08;100.00;95195.34;5111459;28;20959;-57
2023/06/02 04:40:22;;;;;;;1.00;0.53;;;;;;;16.31;100.00;95198.78;5098024;28;20432;-57
2023/06/02 04:42:50;;;;;;;0.70;0.67;;;;;;;16.16;100.00;95199.16;5111488;28;20435;-57
2023/06/02 04:45:20;;;;;;;1.00;0.87;;;;;;;16.20;100.00;95206.25;5084803;28;20435;-58
2023/06/02 04:47:50;;;;;;;0.73;0.60;;;;;;;16.76;100.00;95205.59;5111039;28;20468;-58
2023/06/02 04:50:18;;;;;;;0.63;0.60;;;;;;;15.93;100.00;95210.97;5114316;28;20499;-58
2023/06/02 04:52:47;;;;;;;1.13;1.03;;;;;;;16.13;100.00;95218.50;5115197;28;20467;-58
2023/06/02 04:55:15;;;;;;;0.70;0.60;;;;;;;16.52;100.00;95210.53;5115448;28;20435;-59
2023/06/02 04:57:44;;;;;;;0.50;0.40;;;;;;;17.21;100.00;95222.22;5114586;28;22307;-59
2023/06/02 05:00:14;;;;;;;1.27;0.53;;;;;;;16.92;100.00;95216.66;5115168;28;20447;-59
2023/06/02 05:02:42;;;;;;;0.40;0.40;;;;;;;16.93;100.00;95218.22;5114552;28;20817;-59
2023/06/02 05:05:13;;;;;;;1.87;1.77;;;;;;;16.17;100.00;95222.13;5114984;28;20446;-59
2023/06/02 05:07:41;;;;;;;0.50;0.50;;;;;;;16.24;100.00;95228.59;5113956;28;20440;-59
2023/06/02 05:10:10;;;;;;;2.40;1.37;;;;;;;16.33;100.00;95232.13;5114924;28;20862;-59
2023/06/02 05:12:41;;;;;;;0.60;0.40;;;;;;;16.43;100.00;95233.75;5114675;28;20541;-59
2023/06/02 05:15:10;;;;;;;2.90;0.80;;;;;;;16.59;100.00;95231.50;5114542;28;21153;-59
2023/06/02 05:17:38;;;;;;;1.07;1.03;;;;;;;16.74;100.00;95242.59;5114537;28;20530;-59
2023/06/02 05:20:08;;;;;;;1.37;1.17;;;;;;;16.96;100.00;95249.72;5114217;28;20443;-58
2023/06/02 05:22:37;;;;;;;0.70;0.67;;;;;;;17.35;100.00;95248.88;5114365;28;20432;-60
2023/06/02 05:25:06;;;;;;;0.60;0.60;;;;;;;17.83;100.00;95251.47;5114151;28;20493;-60
2023/06/02 05:27:38;;;;;;;3.50;0.50;;;;;;;17.78;100.00;95255.88;5114379;28;20514;-60
2023/06/02 05:30:08;;;;;;;0.40;0.37;;;;;;;18.04;100.00;95255.88;5113738;28;20492;-60
2023/06/02 05:32:36;;;;;;;2.00;0.57;;;;;;;18.26;100.00;95225.38;5113826;28;20517;-61
2023/06/02 05:35:05;;;;;;;0.57;0.50;;;;;;;18.71;100.00;95229.22;5111881;28;20813;-60
2023/06/02 05:37:35;;;;;;;0.67;0.67;;;;;;;19.34;100.00;95257.03;5103493;28;20475;-60
2023/06/02 05:40:05;;;;;;;0.73;0.73;;;;;;;19.58;100.00;95257.22;5113779;28;20556;-60
2023/06/02 05:42:33;;;;;;;0.40;0.40;;;;;;;19.67;97.78;95251.78;5113755;28;20818;-60
2023/06/02 05:45:05;;;;;;;1.37;0.40;;;;;;;18.98;100.00;95250.25;5113530;28;20447;-61
2023/06/02 05:47:33;;;;;;;3.23;0.90;;;;;;;18.09;100.00;95108.19;5114272;28;20444;-61
2023/06/02 05:50:02;;;;;;;0.50;0.50;;;;;;;19.61;97.93;95251.97;5113782;28;20444;-61
2023/06/02 05:52:31;;;;;;;0.60;0.50;;;;;;;20.04;94.51;95240.84;5113902;28;20448;-61
2023/06/02 05:54:59;;;;;;;0.53;0.53;;;;;;;20.47;89.21;95250.44;5113370;28;20432;-61
2023/06/02 05:57:29;;;;;;;4.00;0.70;;;;;;;20.21;85.06;95245.31;5113414;28;20440;-61
2023/06/02 05:59:57;;;;;;;0.50;0.40;;;;;;;20.09;89.20;95240.66;5113563;28;20593;-61
2023/06/02 06:02:25;;;;;;;0.50;0.40;;;;;;;19.78;88.00;95108.53;5113783;28;20455;-61
2023/06/02 06:04:54;;;;;;;4.50;0.70;;;;;;;20.04;81.91;95178.97;5113836;28;20958;-61
2023/06/02 06:07:22;;;;;;;0.40;0.30;;;;;;;21.18;81.68;95243.59;5113326;28;20462;-61
2023/06/02 06:09:51;;;;;;;2.43;0.60;;;;;;;21.05;81.40;95238.53;5113432;28;20439;-61
2023/06/02 06:12:19;;;;;;;0.50;0.50;;;;;;;20.89;79.36;95238.41;5113114;28;20866;-59
2023/06/02 06:14:49;;;;;;;0.50;0.40;;;;;;;21.22;78.71;95236.44;5113299;28;20835;-60
2023/06/02 06:17:17;;;;;;;1.13;1.03;;;;;;;21.23;77.35;95240.69;5113223;28;20471;-61
2023/06/02 06:19:46;;;;;;;0.50;0.50;;;;;;;21.35;75.65;95188.69;5113583;28;20431;-60
2023/06/02 06:22:14;;;;;;;0.70;0.30;;;;;;;22.26;73.72;95225.59;5112785;28;20443;-59
2023/06/02 06:24:42;;;;;;;0.47;0.40;;;;;;;22.10;71.90;95230.97;5113140;28;20448;-59
2023/06/02 06:27:11;;;;;;;0.70;0.63;;;;;;;22.06;74.11;95218.50;5113161;28;20440;-59
2023/06/02 06:29:39;;;;;;;0.50;0.40;;;;;;;21.77;77.92;95218.78;5113054;28;20472;-63
2023/06/02 06:32:09;;;;;;;0.93;0.50;;;;;;;22.48;73.31;95198.03;5112749;28;20431;-67
2023/06/02 06:34:38;;;;;;;0.50;0.40;;;;;;;22.78;73.26;95201.13;5112926;28;20471;-67
2023/06/02 06:37:06;;;;;;;0.70;0.70;;;;;;;22.76;71.53;95208.78;5112506;28;20440;-67
2023/06/02 06:39:35;;;;;;;1.40;0.47;;;;;;;22.87;70.44;95200.94;5112835;28;20440;-67
2023/06/02 06:42:03;;;;;;;0.60;0.60;;;;;;;22.51;72.56;95197.34;5112611;28;20851;-67
2023/06/02 06:44:32;;;;;;;0.60;0.40;;;;;;;22.94;71.57;95203.81;5113044;28;20440;-67
2023/06/02 06:47:00;;;;;;;0.97;0.53;;;;;;;23.08;70.79;95187.91;5112849;28;20451;-66
2023/06/02 06:49:30;;;;;;;0.50;0.30;;;;;;;22.91;70.41;95182.88;5112276;28;20443;-66
2023/06/02 06:51:58;;;;;;;1.67;0.90;;;;;;;22.85;71.41;95181.56;5113209;28;20436;-65
2023/06/02 06:54:27;;;;;;;1.13;1.13;;;;;;;22.96;71.59;95175.31;5111910;28;20463;-62
2023/06/02 06:56:55;;;;;;;3.43;0.40;;;;;;;23.28;71.70;95176.81;5112294;28;20440;-62
2023/06/02 06:59:23;;;;;;;0.80;0.50;;;;;;;24.05;67.31;95170.69;5112564;28;20482;-61
2023/06/02 07:01:52;;;;;;;0.50;0.50;;;;;;;24.42;65.69;95159.03;5112794;28;20443;-61
2023/06/02 07:04:20;;;;;;;0.50;0.50;;;;;;;24.46;65.92;95150.97;5112282;28;20432;-60
2023/06/02 07:06:50;;;;;;;0.50;0.47;;;;;;;24.66;62.32;95157.91;5112522;28;20440;-61
2023/06/02 07:09:18;;;;;;;0.40;0.40;;;;;;;24.88;63.13;95154.41;5112312;28;20493;-61
2023/06/02 07:11:47;;;;;;;0.43;0.37;;;;;;;24.69;62.97;95151.75;5111544;28;20442;-61
2023/06/02 07:14:17;;;;;;;0.43;0.43;;;;;;;24.67;61.17;95116.09;5112144;28;20511;-62
2023/06/02 07:16:46;;;;;;;0.70;0.40;;;;;;;25.05;62.42;95153.09;5112199;28;21100;-61
2023/06/02 07:19:16;;;;;;;0.70;0.40;;;;;;;25.62;62.37;95150.09;5112017;28;20440;-62
2023/06/02 07:21:44;;;;;;;5.73;0.60;;;;;;;25.38;61.44;95155.13;5112415;28;20458;-62
2023/06/02 07:24:14;;;;;;;0.67;0.57;;;;;;;25.54;61.94;95151.13;5112236;28;20463;-62
2023/06/02 07:26:43;;;;;;;0.70;0.70;;;;;;;25.52;61.13;95156.16;5112239;28;20435;-60
2023/06/02 07:29:12;;;;;;;0.40;0.40;;;;;;;25.80;59.63;95151.09;5111960;28;20471;-61
2023/06/02 07:31:43;;;;;;;0.40;0.30;;;;;;;26.05;60.26;95156.00;5112275;28;20478;-61
2023/06/02 07:34:13;;;;;;;0.63;0.40;;;;;;;25.98;58.30;95136.94;5112689;28;20559;-61
2023/06/02 07:36:43;;;;;;;4.33;1.33;;;;;;;25.59;57.75;95141.88;5111335;28;20432;-60
2023/06/02 07:39:11;;;;;;;2.13;2.03;;;;;;;25.37;58.80;95145.44;5111963;28;20492;-61
2023/06/02 07:41:42;;;;;;;0.80;0.70;;;;;;;25.20;57.50;95144.03;5112206;28;20504;-61
2023/06/02 07:44:10;;;;;;;2.13;1.30;;;;;;;26.01;58.16;95144.34;5112126;28;20446;-61
2023/06/02 07:46:39;;;;;;;10.20;0.50;;;;;;;26.38;56.68;95137.78;5111918;28;20443;-61
2023/06/02 07:49:07;;;;;;;0.80;0.80;;;;;;;26.26;55.51;95146.16;5112114;28;20462;-61
2023/06/02 07:51:36;;;;;;;0.60;0.60;;;;;;;26.05;54.78;95139.72;5098051;28;20467;-62
2023/06/02 07:54:04;;;;;;;1.40;0.80;;;;;;;26.23;55.99;95130.63;5112201;28;20464;-61
2023/06/02 07:56:33;;;;;;;1.07;0.97;;;;;;;26.60;52.93;95135.22;5098167;28;20443;-61
2023/06/02 07:59:02;;;;;;;0.63;0.63;;;;;;;27.29;51.56;95126.06;5112080;28;20436;-63
2023/06/02 08:01:31;;;;;;;0.83;0.40;;;;;;;26.75;48.59;95128.75;5088275;28;20439;-62
2023/06/02 08:03:59;;;;;;;0.67;0.67;;;;;;;26.70;47.15;95066.56;5114830;28;20436;-62
2023/06/02 08:06:28;;;;;;;0.50;0.47;;;;;;;27.25;49.36;95111.66;5111732;28;20436;-63
2023/06/02 08:08:57;;;;;;;1.77;0.73;;;;;;;26.71;47.97;95111.63;5111393;28;20440;-62
2023/06/02 08:11:26;;;;;;;0.83;0.77;;;;;;;27.20;49.04;95112.00;5111744;28;20481;-63
2023/06/02 08:13:54;;;;;;;0.60;0.53;;;;;;;26.72;43.47;95105.03;5111465;28;20517;-62
2023/06/02 08:16:24;;;;;;;2.00;0.50;;;;;;;26.14;47.44;95100.25;5111734;28;20897;-62
2023/06/02 08:19:01;;;;;;;0.50;0.47;;;;;;;26.50;46.49;95101.38;5111770;28;20441;-62
2023/06/02 08:21:30;;;;;;;1.03;0.97;;;;;;;26.35;47.47;95096.97;5111549;28;20508;-62
2023/06/02 08:23:58;;;;;;;4.83;0.53;;;;;;;27.54;48.86;95093.56;5113037;28;20435;-61
2023/06/02 08:26:27;;;;;;;0.50;0.50;;;;;;;27.33;49.31;95060.75;5115814;28;20455;-61
2023/06/02 08:28:57;;;;;;;1.73;1.63;;;;;;;26.95;47.23;95092.81;5114892;28;21067;-61
2023/06/02 08:31:27;;;;;;;1.00;0.90;;;;;;;27.26;46.52;95093.38;5115805;28;20435;-61
2023/06/02 08:33:55;;;;;;;0.60;0.40;;;;;;;27.99;42.39;95094.88;5114925;28;20439;-61
2023/06/02 08:36:24;;;;;;;0.87;0.43;;;;;;;28.72;40.65;95085.28;5114972;28;20484;-61
2023/06/02 08:38:52;;;;;;;0.30;0.20;;;;;;;29.25;42.87;95085.22;5088422;28;20439;-61
2023/06/02 08:41:21;;;;;;;0.53;0.40;;;;;;;29.14;38.84;95087.97;5114942;28;20500;-60
2023/06/02 08:43:49;;;;;;;0.40;0.40;;;;;;;28.45;40.33;95079.41;5115186;28;20439;-60
2023/06/02 08:46:18;;;;;;;0.50;0.50;;;;;;;29.17;42.69;95078.22;5101055;28;20458;-60
2023/06/02 08:48:55;;;;;;;0.50;0.50;;;;;;;28.69;37.33;95075.16;5115190;28;20808;-60
2023/06/02 08:51:24;;;;;;;0.60;0.60;;;;;;;29.60;36.40;95071.47;5114816;28;20483;-61
2023/06/02 08:53:52;;;;;;;1.43;0.60;;;;;;;28.74;35.67;95067.34;5115077;28;20944;-62
2023/06/02 08:56:21;;;;;;;0.40;0.30;;;;;;;29.25;31.18;95075.09;5114948;28;20479;-62
2023/06/02 08:58:49;;;;;;;1.00;0.40;;;;;;;29.59;32.85;95059.00;5115155;28;20446;-60
2023/06/02 09:01:18;;;;;;;0.70;0.60;;;;;;;30.05;35.70;95062.31;5114491;28;20443;-62
2023/06/02 09:03:48;;;;;;;0.30;0.30;;;;;;;30.82;34.73;95065.66;5114648;28;20439;-61
2023/06/02 09:06:25;;;;;;;4.00;0.53;;;;;;;31.12;35.04;95062.28;5114657;27;20500;-61
2023/06/02 09:08:57;;;;;;;0.40;0.30;;;;;;;30.06;33.84;95063.06;5115107;28;20880;-60
2023/06/02 09:11:27;;;;;;;0.60;0.60;;;;;;;30.18;33.80;95049.69;5089445;28;20455;-61
2023/06/02 09:13:56;;;;;;;0.67;0.60;;;;;;;30.04;35.96;95049.81;5114402;28;20444;-60
2023/06/02 09:16:35;;;;;;;0.40;0.40;;;;;;;29.79;35.30;95045.66;5114401;28;20481;-60
2023/06/02 09:19:04;;;;;;;0.40;0.30;;;;;;;31.29;33.96;95037.44;5114596;28;20522;-60
2023/06/02 09:21:35;;;;;;;0.30;0.30;;;;;;;31.53;32.54;95026.63;5114680;28;20435;-61
2023/06/02 09:24:04;;;;;;;0.53;0.40;;;;;;;30.98;34.36;94985.75;5114252;28;20447;-60
2023/06/02 09:26:35;;;;;;;0.50;0.40;;;;;;;31.07;33.20;95018.91;5114011;28;20545;-61
2023/06/02 09:29:06;;;;;;;4.63;0.57;;;;;;;31.50;35.37;95019.25;5114174;28;20479;-60
2023/06/02 09:31:48;;;;;;;1.27;0.30;;;;;;;31.80;35.11;95019.22;5114112;28;20496;-61
2023/06/02 09:34:19;;;;;;;0.60;0.50;;;;;;;31.31;34.56;95004.94;5114075;28;20492;-60
2023/06/02 09:36:49;;;;;;;0.80;0.63;;;;;;;30.86;35.78;95008.16;5114117;28;20934;-61
2023/06/02 09:39:33;;;;;;;0.53;0.40;;;;;;;31.02;35.43;95003.69;5114430;28;20454;-61
2023/06/02 09:42:02;;;;;;;0.50;0.50;;;;;;;31.86;34.16;95006.59;5114415;28;20462;-62
2023/06/02 09:44:30;;;;;;;0.40;0.30;;;;;;;31.05;34.93;95008.38;5114402;28;20443;-61
2023/06/02 09:46:59;;;;;;;0.70;0.70;;;;;;;30.75;34.08;95009.03;5114397;28;20450;-61
2023/06/02 09:49:39;;;;;;;0.40;0.33;;;;;;;30.68;33.18;95005.59;5114144;28;20467;-62
2023/06/02 09:52:15;;;;;;;0.53;0.50;;;;;;;31.26;33.78;95002.66;5113967;28;20488;-62
2023/06/02 09:54:44;;;;;;;0.40;0.30;;;;;;;31.79;32.42;94995.75;5113663;28;20430;-61
2023/06/02 09:57:15;;;;;;;1.40;0.90;;;;;;;31.31;31.53;94994.00;5114008;28;20531;-63
2023/06/02 09:59:44;;;;;;;1.23;1.13;;;;;;;30.88;32.65;94938.13;5113917;28;20889;-62
2023/06/02 10:02:14;;;;;;;0.50;0.50;;;;;;;31.85;32.54;94980.41;5113843;28;20439;-62
2023/06/02 10:04:45;;;;;;;0.37;0.33;;;;;;;32.53;33.18;94968.00;5100882;28;20427;-62
2023/06/02 10:07:35;;;;;;;0.90;0.67;;;;;;;32.04;31.51;94968.78;5114372;28;20775;-62
2023/06/02 10:10:18;;;;;;;0.50;0.40;;;;;;;31.77;33.57;94970.72;5114034;28;20522;-62
2023/06/02 10:13:05;;;;;;;1.60;0.53;;;;;;;31.72;33.40;94957.47;5113856;28;20443;-62
2023/06/02 10:15:47;;;;;;;0.50;0.40;;;;;;;32.73;30.63;94967.25;5116014;28;20524;-61
2023/06/02 10:18:55;;;;;;;0.73;0.70;;;;;;;31.74;32.30;94961.34;5114549;28;20939;-62
2023/06/02 10:21:38;;;;;;;0.40;0.30;;;;;;;31.97;31.93;94960.63;5104099;28;20439;-63
2023/06/02 10:24:17;;;;;;;0.50;0.50;;;;;;;32.28;31.69;94953.13;5113776;28;20427;-63
2023/06/02 10:27:07;;;;;;;0.60;0.33;;;;;;;32.84;33.59;94959.63;5113580;28;20629;-63
2023/06/02 10:29:37;;;;;;;0.40;0.40;;;;;;;33.49;30.34;94946.97;5113106;28;20463;-59
2023/06/02 10:32:20;;;;;;;0.40;0.30;;;;;;;33.99;29.86;94952.94;5113016;28;20441;-60
2023/06/02 10:34:53;;;;;;;0.40;0.40;;;;;;;33.90;31.40;94958.25;5112766;28;20439;-63
2023/06/02 10:37:24;;;;;;;0.70;0.70;;;;;;;31.42;31.24;94922.66;5113160;28;20450;-64
2023/06/02 10:39:54;;;;;;;0.67;0.67;;;;;;;31.37;31.94;94947.75;5113231;28;20435;-61
2023/06/02 10:42:24;;;;;;;0.97;0.97;;;;;;;32.20;31.59;94951.69;5112918;28;20950;-62
2023/06/02 10:44:54;;;;;;;0.83;0.83;;;;;;;31.21;32.62;94942.88;5109274;28;20804;-62
2023/06/02 10:47:38;;;;;;;0.40;0.33;;;;;;;31.36;32.65;94948.94;5102615;28;20478;-64
2023/06/02 10:50:13;;;;;;;1.67;0.50;;;;;;;31.78;30.79;94945.63;5086362;28;20435;-60
2023/06/02 10:53:09;;;;;;;1.20;1.10;;;;;;;31.20;32.76;94937.78;5112620;28;20431;-59
2023/06/02 10:55:41;;;;;;;0.40;0.40;;;;;;;31.65;33.60;94935.66;5109793;28;20478;-62
2023/06/02 10:58:12;;;;;;;0.50;0.50;;;;;;;30.29;32.17;94885.56;5112813;28;20435;-61
2023/06/02 11:00:46;;;;;;;0.80;0.80;;;;;;;30.01;33.04;94937.75;5112854;28;20518;-60
2023/06/02 11:03:34;;;;;;;0.43;0.40;;;;;;;30.92;32.95;94925.22;5112786;28;20435;-63
2023/06/02 11:06:18;;;;;;;0.93;0.60;;;;;;;30.85;33.08;94919.00;5112380;28;20435;-64
2023/06/02 11:08:51;;;;;;;0.40;0.30;;;;;;;31.82;35.36;94918.19;5112421;28;20432;-61
2023/06/02 11:11:54;;;;;;;0.50;0.47;;;;;;;30.65;32.42;94908.69;5087795;28;20500;-62
2023/06/02 11:14:22;;;;;;;0.80;0.60;;;;;;;30.59;32.82;94906.78;5112709;28;20426;-64
2023/06/02 11:17:28;;;;;;;1.27;0.70;;;;;;;29.96;33.66;94902.66;5112611;28;20479;-63
2023/06/02 11:19:57;;;;;;;1.53;1.40;;;;;;;30.85;33.75;94910.81;5095964;28;20942;-61
2023/06/02 11:22:26;;;;;;;1.17;1.10;;;;;;;30.38;35.79;94907.81;5112225;28;20848;-61
2023/06/02 11:24:57;;;;;;;0.43;0.40;;;;;;;30.32;34.29;94901.19;5112827;28;20457;-60
2023/06/02 11:27:39;;;;;;;1.13;0.40;;;;;;;31.00;32.51;94895.78;5112401;28;20466;-60
2023/06/02 11:30:15;;;;;;;0.70;0.60;;;;;;;30.32;32.72;94894.94;5112238;28;21018;-60
2023/06/02 11:32:47;;;;;;;0.80;0.60;;;;;;;30.27;33.60;94898.88;5112230;28;20449;-62
2023/06/02 11:35:17;;;;;;;0.40;0.30;;;;;;;31.29;33.01;94891.53;5111829;28;20439;-63
2023/06/02 11:38:02;;;;;;;0.57;0.37;;;;;;;31.60;32.83;94892.28;5112522;28;20551;-61
2023/06/02 11:40:33;;;;;;;0.40;0.30;;;;;;;31.49;33.03;94881.47;5086210;28;20808;-61
2023/06/02 11:43:02;;;;;;;1.20;1.10;;;;;;;31.31;33.56;94894.63;5112207;28;20520;-60
2023/06/02 11:45:31;;;;;;;0.70;0.70;;;;;;;30.46;34.55;94894.84;5111691;28;20438;-61
2023/06/02 11:48:02;;;;;;;0.60;0.60;;;;;;;30.48;34.68;94882.31;5112030;28;20440;-60